Terminal Aerodrome Forecast
Issued by NWS Quad Cities IA IL

Home | Current Version | Previous Version | Text Only | Print | Product List | Glossary On
Versions: 1 2 3 4 5 6 7 8 9 10 11 12 13 14 15 16 17 18 19 20 21 22 23
310
FTUS43 KDVN 081500 AAC
TAFDBQ
TAF AMD
KDBQ 081500Z 0815/0912 32015G23KT 6SM -SN OVC025
      TEMPO 0815/0816 2SM -SN BR BKN018
     FM081800 32018G25KT 5SM -SHSN BR OVC020
     FM090300 33017G23KT 4SM -SHSN BR OVC018=

USA.gov is the U.S. government's official web portal to all federal, state and local government web resources and services.